Time;durP1;ratioP1;P1;durP2;ratioP2;P2;SDS_P1;SDS_P2;PMS_P1;PMS_P2;Temp;Humidity;BMP_temperature;BMP_pressure;BME280_temperature;BME280_humidity;BME280_pressure;Samples;Min_cycle;Max_cycle;Signal;HPM_P1;HPM_P2
2022/09/29 00:01:29;;;;;;;3.90;3.80;;;;;;;;;;5004407;28;20033;-71
2022/09/29 00:03:55;;;;;;;4.20;4.00;;;;;;;;;;5007140;28;20371;-71
2022/09/29 00:06:21;;;;;;;4.20;4.00;;;;;;;;;;5007755;28;20034;-71
2022/09/29 00:08:47;;;;;;;4.18;3.97;;;;;;;;;;5006306;28;20497;-71
2022/09/29 00:11:16;;;;;;;4.28;4.07;;;;;;;;;;5006038;28;20488;-72
2022/09/29 00:13:42;;;;;;;4.30;4.10;;;;;;;;;;5008923;28;20037;-71
2022/09/29 00:16:08;;;;;;;4.00;3.88;;;;;;;;;;5009205;28;20605;-72
2022/09/29 00:18:34;;;;;;;3.97;3.88;;;;;;;;;;5011199;28;20121;-71
2022/09/29 00:21:04;;;;;;;3.60;3.50;;;;;;;;;;5008621;28;20442;-72
2022/09/29 00:23:30;;;;;;;4.10;3.95;;;;;;;;;;5010781;28;20529;-71
2022/09/29 00:26:18;;;;;;;3.80;3.70;;;;;;;;;;5011831;28;20509;-71
2022/09/29 00:28:54;;;;;;;3.92;3.83;;;;;;;;;;5007666;28;20041;-71
2022/09/29 00:31:20;;;;;;;4.22;4.03;;;;;;;;;;5007018;28;20125;-71
2022/09/29 00:33:46;;;;;;;4.40;4.20;;;;;;;;;;5007738;28;20037;-72
2022/09/29 00:36:14;;;;;;;4.30;4.10;;;;;;;;;;5010612;28;20033;-72
2022/09/29 00:38:41;;;;;;;4.40;4.20;;;;;;;;;;5011631;28;20033;-71
2022/09/29 00:41:12;;;;;;;4.30;4.10;;;;;;;;;;5006902;28;20489;-71
2022/09/29 00:43:56;;;;;;;4.30;4.10;;;;;;;;;;5009675;28;20030;-72
2022/09/29 00:47:00;;;;;;;3.88;3.78;;;;;;;;;;5006497;28;20563;-72
2022/09/29 00:49:41;;;;;;;4.18;3.97;;;;;;;;;;5002645;28;20038;-72
2022/09/29 00:52:11;;;;;;;3.88;3.78;;;;;;;;;;5006228;28;20036;-71
2022/09/29 00:54:44;;;;;;;4.85;4.65;;;;;;;;;;5009297;28;20145;-71
2022/09/29 00:57:14;;;;;;;4.47;4.28;;;;;;;;;;5007112;28;20129;-72
2022/09/29 01:00:00;;;;;;;4.10;3.95;;;;;;;;;;5005498;28;20037;-72
2022/09/29 01:02:26;;;;;;;3.67;3.58;;;;;;;;;;5008493;28;20049;-71
2022/09/29 01:04:54;;;;;;;3.90;3.80;;;;;;;;;;5007297;28;20089;-71
2022/09/29 01:07:24;;;;;;;3.75;3.65;;;;;;;;;;5010759;28;20049;-72
2022/09/29 01:09:52;;;;;;;3.80;3.70;;;;;;;;;;5008527;28;20038;-72
2022/09/29 01:12:19;;;;;;;4.25;4.05;;;;;;;;;;5007842;28;20700;-71
2022/09/29 01:14:46;;;;;;;3.97;3.88;;;;;;;;;;5011095;28;20033;-72
2022/09/29 01:17:12;;;;;;;4.03;3.90;;;;;;;;;;5006794;28;20117;-71
2022/09/29 01:19:40;;;;;;;3.70;3.60;;;;;;;;;;5004850;28;20037;-72
2022/09/29 01:22:20;;;;;;;3.85;3.75;;;;;;;;;;5008754;28;20057;-72
2022/09/29 01:25:01;;;;;;;3.70;3.60;;;;;;;;;;5011505;28;20073;-72
2022/09/29 01:27:42;;;;;;;4.20;4.00;;;;;;;;;;5011294;28;20193;-72
2022/09/29 01:30:17;;;;;;;4.50;4.30;;;;;;;;;;5008707;28;20082;-71
2022/09/29 01:32:57;;;;;;;4.00;3.90;;;;;;;;;;5009738;28;20038;-71
2022/09/29 01:35:28;;;;;;;4.10;3.92;;;;;;;;;;5014148;28;20065;-72
2022/09/29 01:38:15;;;;;;;3.97;3.88;;;;;;;;;;5009592;28;20071;-72
2022/09/29 01:41:11;;;;;;;3.67;3.58;;;;;;;;;;5012786;28;20108;-72
2022/09/29 01:43:49;;;;;;;4.10;3.90;;;;;;;;;;5010406;28;20693;-72
2022/09/29 01:46:17;;;;;;;3.60;3.50;;;;;;;;;;5009213;28;20103;-72
2022/09/29 01:48:47;;;;;;;3.70;3.60;;;;;;;;;;5013313;28;20041;-71
2022/09/29 01:51:16;;;;;;;3.78;3.67;;;;;;;;;;5010071;28;20520;-72
2022/09/29 01:53:49;;;;;;;4.20;4.00;;;;;;;;;;5011152;28;20088;-71
2022/09/29 01:56:21;;;;;;;4.20;4.00;;;;;;;;;;5009921;28;20036;-72
2022/09/29 01:58:59;;;;;;;3.80;3.70;;;;;;;;;;5016371;28;20037;-72
2022/09/29 02:01:33;;;;;;;3.97;3.88;;;;;;;;;;5010133;28;20045;-72
2022/09/29 02:04:03;;;;;;;3.75;3.65;;;;;;;;;;5010076;28;20482;-71
2022/09/29 02:06:36;;;;;;;4.65;4.45;;;;;;;;;;5008927;28;20034;-72
2022/09/29 02:09:06;;;;;;;4.20;4.00;;;;;;;;;;5011151;28;20042;-72
2022/09/29 02:11:34;;;;;;;3.92;3.83;;;;;;;;;;5008808;28;20774;-72
2022/09/29 02:14:06;;;;;;;4.35;4.15;;;;;;;;;;5009770;28;20037;-71
2022/09/29 02:16:37;;;;;;;4.35;4.15;;;;;;;;;;5013259;28;20642;-72
2022/09/29 02:19:14;;;;;;;3.90;3.80;;;;;;;;;;5010507;28;20040;-71
2022/09/29 02:21:41;;;;;;;4.00;3.90;;;;;;;;;;5010254;28;20125;-71
2022/09/29 02:24:06;;;;;;;3.90;3.80;;;;;;;;;;5008997;28;20037;-72
2022/09/29 02:26:33;;;;;;;4.00;3.90;;;;;;;;;;5009850;28;20029;-72
2022/09/29 02:29:00;;;;;;;4.35;4.15;;;;;;;;;;5009760;28;20034;-71
2022/09/29 02:31:26;;;;;;;4.00;3.90;;;;;;;;;;5007288;28;20042;-72
2022/09/29 02:33:51;;;;;;;4.03;3.88;;;;;;;;;;5012729;28;20483;-71
2022/09/29 02:36:23;;;;;;;4.13;3.92;;;;;;;;;;5012271;28;20041;-71
2022/09/29 02:39:09;;;;;;;3.80;3.70;;;;;;;;;;5012598;28;20065;-72
2022/09/29 02:41:46;;;;;;;4.10;3.92;;;;;;;;;;5008568;28;20033;-71
2022/09/29 02:44:23;;;;;;;4.20;4.00;;;;;;;;;;5015781;28;20061;-71
2022/09/29 02:47:18;;;;;;;3.60;3.50;;;;;;;;;;5013192;28;20046;-72
2022/09/29 02:50:06;;;;;;;4.00;3.90;;;;;;;;;;5010311;28;20137;-72
2022/09/29 02:52:51;;;;;;;4.28;4.07;;;;;;;;;;5009619;28;20030;-71
2022/09/29 02:55:27;;;;;;;4.43;4.22;;;;;;;;;;5001313;28;20048;-72
2022/09/29 02:58:02;;;;;;;4.70;4.50;;;;;;;;;;5009111;28;20442;-72
2022/09/29 03:00:29;;;;;;;4.50;4.30;;;;;;;;;;5008283;28;20040;-72
2022/09/29 03:02:54;;;;;;;4.47;4.28;;;;;;;;;;5010047;28;20041;-72
2022/09/29 03:05:21;;;;;;;4.35;4.15;;;;;;;;;;5007347;28;20034;-72
2022/09/29 03:07:47;;;;;;;3.80;3.70;;;;;;;;;;5008850;28;20034;-72
2022/09/29 03:10:14;;;;;;;4.30;4.10;;;;;;;;;;5009901;28;20092;-71
2022/09/29 03:12:40;;;;;;;4.30;4.10;;;;;;;;;;5012862;28;20101;-72
2022/09/29 03:15:07;;;;;;;4.95;4.75;;;;;;;;;;5007092;28;20112;-71
2022/09/29 03:17:33;;;;;;;4.50;4.30;;;;;;;;;;5008767;28;20037;-71
2022/09/29 03:19:58;;;;;;;4.10;3.92;;;;;;;;;;5008191;28;20535;-72
2022/09/29 03:22:24;;;;;;;4.15;3.95;;;;;;;;;;5012765;28;20057;-71
2022/09/29 03:24:50;;;;;;;3.90;3.80;;;;;;;;;;5008986;28;20049;-71
2022/09/29 03:27:16;;;;;;;4.32;4.13;;;;;;;;;;5014586;28;20049;-72
2022/09/29 03:29:41;;;;;;;4.35;4.15;;;;;;;;;;5009975;28;20538;-71
2022/09/29 03:32:08;;;;;;;4.40;4.20;;;;;;;;;;5011247;28;20057;-72
2022/09/29 03:34:34;;;;;;;4.40;4.20;;;;;;;;;;5013152;28;20065;-71
2022/09/29 03:37:00;;;;;;;4.57;4.38;;;;;;;;;;5008089;28;20038;-72
2022/09/29 03:39:26;;;;;;;4.25;4.05;;;;;;;;;;5009992;28;20481;-72
2022/09/29 03:41:51;;;;;;;4.70;4.50;;;;;;;;;;5008276;28;20030;-71
2022/09/29 03:44:17;;;;;;;4.32;4.13;;;;;;;;;;5008238;28;20076;-72
2022/09/29 03:46:43;;;;;;;4.50;4.30;;;;;;;;;;5007674;28;20311;-72
2022/09/29 03:49:10;;;;;;;4.50;4.30;;;;;;;;;;5008906;28;20038;-72
2022/09/29 03:51:36;;;;;;;4.45;4.25;;;;;;;;;;5007863;28;20025;-72
2022/09/29 03:54:02;;;;;;;4.40;4.20;;;;;;;;;;5005994;28;20037;-72
2022/09/29 03:56:27;;;;;;;4.78;4.57;;;;;;;;;;5013623;28;20037;-72
2022/09/29 03:58:53;;;;;;;4.50;4.30;;;;;;;;;;5018841;28;20787;-71
2022/09/29 04:01:18;;;;;;;4.50;4.30;;;;;;;;;;5010749;28;20038;-72
2022/09/29 04:03:44;;;;;;;4.50;4.30;;;;;;;;;;5007198;28;20038;-72
2022/09/29 04:06:09;;;;;;;4.43;4.22;;;;;;;;;;5008749;28;20652;-72
2022/09/29 04:08:36;;;;;;;4.55;4.35;;;;;;;;;;5011695;28;20037;-72
2022/09/29 04:11:02;;;;;;;4.47;4.28;;;;;;;;;;5008813;28;20044;-72
2022/09/29 04:13:28;;;;;;;4.53;4.32;;;;;;;;;;5008676;28;20036;-72
2022/09/29 04:16:01;;;;;;;4.60;4.40;;;;;;;;;;5008066;28;20109;-71
2022/09/29 04:18:27;;;;;;;4.40;4.20;;;;;;;;;;5007610;28;20083;-72
2022/09/29 04:20:54;;;;;;;4.40;4.20;;;;;;;;;;5008228;28;20045;-72
2022/09/29 04:23:19;;;;;;;4.38;4.18;;;;;;;;;;5010095;28;20037;-72
2022/09/29 04:25:45;;;;;;;4.60;4.40;;;;;;;;;;5010490;28;20034;-72
2022/09/29 04:28:12;;;;;;;4.40;4.20;;;;;;;;;;5008128;28;20453;-72
2022/09/29 04:30:37;;;;;;;4.50;4.30;;;;;;;;;;5009836;28;20026;-71
2022/09/29 04:33:03;;;;;;;4.68;4.47;;;;;;;;;;5007733;28;20067;-72
2022/09/29 04:35:28;;;;;;;4.70;4.50;;;;;;;;;;5005806;28;20029;-72
2022/09/29 04:37:58;;;;;;;4.60;4.40;;;;;;;;;;5006999;28;20540;-72
2022/09/29 04:40:24;;;;;;;;;;;;;;;;;;5009041;28;20810;-71
2022/09/29 04:42:50;;;;;;;4.57;4.38;;;;;;;;;;5006949;28;20369;-71
2022/09/29 04:45:15;;;;;;;4.50;4.30;;;;;;;;;;5008955;28;20030;-72
2022/09/29 04:47:41;;;;;;;4.45;4.25;;;;;;;;;;5007979;28;20038;-72
2022/09/29 04:50:08;;;;;;;6.30;6.00;;;;;;;;;;5010840;28;20053;-71
2022/09/29 04:52:35;;;;;;;4.45;4.25;;;;;;;;;;5006717;28;20088;-71
2022/09/29 04:55:01;;;;;;;4.45;4.25;;;;;;;;;;5005893;28;20502;-72
2022/09/29 04:57:27;;;;;;;4.55;4.35;;;;;;;;;;5010476;28;20034;-72
2022/09/29 04:59:53;;;;;;;4.63;4.43;;;;;;;;;;5011511;28;20034;-72
2022/09/29 05:02:18;;;;;;;4.80;4.60;;;;;;;;;;5011693;28;20083;-71
2022/09/29 05:04:46;;;;;;;4.50;4.30;;;;;;;;;;5008126;28;20159;-71
2022/09/29 05:07:12;;;;;;;4.53;4.32;;;;;;;;;;5013371;28;20030;-71
2022/09/29 05:09:38;;;;;;;4.65;4.45;;;;;;;;;;5012367;28;20038;-71
2022/09/29 05:12:04;;;;;;;4.60;4.40;;;;;;;;;;5012406;28;20037;-71
2022/09/29 05:14:29;;;;;;;4.68;4.47;;;;;;;;;;5012658;28;20057;-71
2022/09/29 05:16:55;;;;;;;4.45;4.25;;;;;;;;;;5008688;28;20037;-71
2022/09/29 05:19:20;;;;;;;4.57;4.38;;;;;;;;;;5008789;28;20033;-71
2022/09/29 05:21:46;;;;;;;4.38;4.18;;;;;;;;;;5011022;28;20093;-71
2022/09/29 05:24:12;;;;;;;4.63;4.43;;;;;;;;;;5011798;28;20037;-71
2022/09/29 05:26:37;;;;;;;4.50;4.30;;;;;;;;;;5009630;28;20034;-71
2022/09/29 05:29:03;;;;;;;4.50;4.30;;;;;;;;;;5010827;28;20065;-71
2022/09/29 05:31:29;;;;;;;4.55;4.35;;;;;;;;;;5012960;28;20520;-71
2022/09/29 05:33:55;;;;;;;4.50;4.30;;;;;;;;;;5011538;28;20029;-71
2022/09/29 05:36:21;;;;;;;4.72;4.53;;;;;;;;;;5010995;28;20045;-71
2022/09/29 05:38:47;;;;;;;4.57;4.38;;;;;;;;;;5010578;28;20036;-72
2022/09/29 05:41:16;;;;;;;4.57;4.38;;;;;;;;;;5010553;28;20038;-71
2022/09/29 05:43:41;;;;;;;4.75;4.55;;;;;;;;;;5006046;28;20486;-71
2022/09/29 05:46:09;;;;;;;4.93;4.72;;;;;;;;;;5010968;28;20076;-71
2022/09/29 05:48:35;;;;;;;4.60;4.40;;;;;;;;;;5011736;28;20033;-71
2022/09/29 05:51:09;;;;;;;5.63;5.32;;;;;;;;;;5008844;28;20042;-71
2022/09/29 05:53:35;;;;;;;4.60;4.40;;;;;;;;;;5011017;28;20029;-72
2022/09/29 05:56:13;;;;;;;4.60;4.40;;;;;;;;;;5012336;28;20036;-71
2022/09/29 05:58:40;;;;;;;4.22;4.03;;;;;;;;;;5004745;28;20493;-71
2022/09/29 06:01:10;;;;;;;4.60;4.40;;;;;;;;;;5010049;28;20128;-71
2022/09/29 06:03:36;;;;;;;4.80;4.60;;;;;;;;;;5010938;28;20382;-72
2022/09/29 06:06:06;;;;;;;4.90;4.70;;;;;;;;;;5011707;28;20041;-71
2022/09/29 06:08:32;;;;;;;4.90;4.70;;;;;;;;;;5013385;28;20068;-71
2022/09/29 06:11:04;;;;;;;4.40;4.20;;;;;;;;;;5016892;28;20137;-71
2022/09/29 06:13:29;;;;;;;4.70;4.50;;;;;;;;;;5009511;28;20406;-71
2022/09/29 06:15:57;;;;;;;5.03;4.82;;;;;;;;;;5012534;28;21158;-71
2022/09/29 06:18:23;;;;;;;5.32;5.13;;;;;;;;;;5013074;28;20064;-72
2022/09/29 06:20:48;;;;;;;4.50;4.30;;;;;;;;;;5015323;28;20065;-71
2022/09/29 06:23:14;;;;;;;4.38;4.18;;;;;;;;;;5013256;28;20112;-72
2022/09/29 06:25:40;;;;;;;4.68;4.47;;;;;;;;;;5012897;28;20127;-71
2022/09/29 06:28:05;;;;;;;4.80;4.60;;;;;;;;;;5013073;28;20043;-71
2022/09/29 06:30:31;;;;;;;4.50;4.30;;;;;;;;;;5009822;28;20029;-71
2022/09/29 06:32:56;;;;;;;5.07;4.88;;;;;;;;;;5011399;28;20033;-71
2022/09/29 06:38:06;;;;;;;4.85;4.65;;;;;;;;;;5007909;28;20486;-71
2022/09/29 06:40:32;;;;;;;4.78;4.57;;;;;;;;;;5010736;28;20030;-71
2022/09/29 06:42:57;;;;;;;5.10;4.90;;;;;;;;;;5011395;28;20032;-71
2022/09/29 06:45:23;;;;;;;4.90;4.70;;;;;;;;;;5018335;28;20094;-71
2022/09/29 06:47:49;;;;;;;4.97;4.78;;;;;;;;;;5013393;28;20029;-71
2022/09/29 06:50:14;;;;;;;4.70;4.50;;;;;;;;;;4995806;28;20041;-72
2022/09/29 06:52:40;;;;;;;4.72;4.53;;;;;;;;;;5012411;28;20059;-70
2022/09/29 06:55:06;;;;;;;5.00;4.80;;;;;;;;;;5012439;28;20116;-71
2022/09/29 06:57:32;;;;;;;5.20;5.00;;;;;;;;;;5011299;28;20066;-72
2022/09/29 06:59:57;;;;;;;5.07;4.88;;;;;;;;;;5008490;28;20516;-72
2022/09/29 07:02:23;;;;;;;5.10;4.90;;;;;;;;;;5011072;28;20133;-72
2022/09/29 07:04:48;;;;;;;5.00;4.80;;;;;;;;;;5007987;28;20049;-72
2022/09/29 07:07:14;;;;;;;5.25;5.05;;;;;;;;;;5013155;28;20038;-71
2022/09/29 07:09:41;;;;;;;5.20;5.00;;;;;;;;;;5011681;28;20045;-71
2022/09/29 07:12:07;;;;;;;5.40;5.20;;;;;;;;;;5015990;28;20030;-71
2022/09/29 07:14:32;;;;;;;5.40;5.20;;;;;;;;;;5018390;28;20030;-71
2022/09/29 07:16:59;;;;;;;5.30;5.10;;;;;;;;;;5011603;28;20505;-70
2022/09/29 07:19:24;;;;;;;5.43;5.22;;;;;;;;;;5010752;28;20116;-71
2022/09/29 07:21:50;;;;;;;5.00;4.80;;;;;;;;;;5009552;28;20489;-72
2022/09/29 07:24:16;;;;;;;5.43;5.22;;;;;;;;;;5008723;28;20096;-70
2022/09/29 07:26:42;;;;;;;5.28;5.07;;;;;;;;;;5011366;28;20060;-70
2022/09/29 07:29:08;;;;;;;5.30;5.10;;;;;;;;;;5010699;28;20128;-72
2022/09/29 07:31:33;;;;;;;5.03;4.82;;;;;;;;;;5008011;28;20040;-70
2022/09/29 07:33:59;;;;;;;4.97;4.78;;;;;;;;;;5009535;28;20065;-71
2022/09/29 07:36:25;;;;;;;4.90;4.70;;;;;;;;;;5010094;28;20092;-71
2022/09/29 07:38:51;;;;;;;5.20;5.00;;;;;;;;;;5007669;28;20505;-71
2022/09/29 07:41:19;;;;;;;5.22;5.03;;;;;;;;;;5008242;28;20040;-71
2022/09/29 07:43:45;;;;;;;5.47;5.28;;;;;;;;;;5010055;28;20124;-71
2022/09/29 07:46:12;;;;;;;5.00;4.80;;;;;;;;;;5009195;28;20569;-71
2022/09/29 07:48:38;;;;;;;5.30;5.10;;;;;;;;;;5005492;28;20037;-71
2022/09/29 07:51:07;;;;;;;5.13;4.93;;;;;;;;;;5008857;28;20609;-71
2022/09/29 07:53:35;;;;;;;5.03;4.82;;;;;;;;;;5009652;28;20036;-70
2022/09/29 07:56:06;;;;;;;5.03;4.82;;;;;;;;;;5010831;28;20033;-70
2022/09/29 07:58:32;;;;;;;5.30;5.10;;;;;;;;;;5009875;28;20030;-70
2022/09/29 08:00:59;;;;;;;5.20;5.00;;;;;;;;;;5009490;28;20038;-70
2022/09/29 08:03:25;;;;;;;5.15;4.95;;;;;;;;;;5004433;28;20049;-70
2022/09/29 08:05:53;;;;;;;5.30;5.10;;;;;;;;;;5007942;28;20060;-71
2022/09/29 08:08:19;;;;;;;5.10;4.90;;;;;;;;;;5010346;28;20041;-71
2022/09/29 08:10:44;;;;;;;5.40;5.20;;;;;;;;;;5006234;28;20042;-70
2022/09/29 08:13:10;;;;;;;5.07;4.88;;;;;;;;;;5007565;28;20026;-71
2022/09/29 08:15:35;;;;;;;5.13;4.93;;;;;;;;;;5007939;28;20045;-70
2022/09/29 08:18:01;;;;;;;5.20;5.00;;;;;;;;;;5007010;28;20122;-70
2022/09/29 08:20:26;;;;;;;5.65;5.43;;;;;;;;;;5007069;28;20101;-70
2022/09/29 08:22:55;;;;;;;5.75;5.45;;;;;;;;;;5008713;28;20034;-70
2022/09/29 08:25:22;;;;;;;5.30;5.10;;;;;;;;;;5007727;28;20385;-70
2022/09/29 08:27:47;;;;;;;5.20;5.00;;;;;;;;;;5007967;28;20073;-70
2022/09/29 08:30:13;;;;;;;5.30;5.10;;;;;;;;;;5007595;28;20076;-70
2022/09/29 08:32:39;;;;;;;5.55;5.35;;;;;;;;;;5010298;28;20449;-70
2022/09/29 08:35:05;;;;;;;5.13;4.93;;;;;;;;;;5007422;28;20042;-70
2022/09/29 08:37:30;;;;;;;5.90;5.60;;;;;;;;;;5008630;28;20038;-71
2022/09/29 08:39:56;;;;;;;5.78;5.47;;;;;;;;;;5007526;28;20034;-71
2022/09/29 08:42:44;;;;;;;5.78;5.47;;;;;;;;;;4992022;28;20084;-71
2022/09/29 08:45:16;;;;;;;5.70;5.45;;;;;;;;;;5007672;28;20104;-71
2022/09/29 08:47:48;;;;;;;5.38;5.18;;;;;;;;;;5008715;28;20107;-71
2022/09/29 08:50:25;;;;;;;5.32;5.13;;;;;;;;;;5007909;28;20564;-70
2022/09/29 08:52:55;;;;;;;5.47;5.28;;;;;;;;;;5005843;28;20117;-71
2022/09/29 08:55:28;;;;;;;5.20;5.00;;;;;;;;;;5008384;28;20037;-71
2022/09/29 08:57:59;;;;;;;5.53;5.32;;;;;;;;;;5009376;28;20046;-70
2022/09/29 09:00:44;;;;;;;6.20;5.90;;;;;;;;;;5007550;28;20038;-71
2022/09/29 09:03:19;;;;;;;5.75;5.47;;;;;;;;;;5006472;28;20045;-70
2022/09/29 09:06:12;;;;;;;6.00;5.70;;;;;;;;;;5006012;28;20037;-70
2022/09/29 09:09:15;;;;;;;5.90;5.60;;;;;;;;;;5010668;28;20127;-70
2022/09/29 09:11:52;;;;;;;5.80;5.50;;;;;;;;;;5007444;28;20139;-70
2022/09/29 09:14:46;;;;;;;5.53;5.32;;;;;;;;;;5006763;28;20045;-71
2022/09/29 09:17:37;;;;;;;5.88;5.57;;;;;;;;;;4977774;28;20053;-72
2022/09/29 09:20:51;;;;;;;5.60;5.40;;;;;;;;;;5009326;28;20108;-71
2022/09/29 09:23:56;;;;;;;5.43;5.22;;;;;;;;;;4913083;29;20080;-70
2022/09/29 09:26:36;;;;;;;6.00;5.70;;;;;;;;;;4874904;29;20048;-70
2022/09/29 09:29:12;;;;;;;5.82;5.53;;;;;;;;;;4868995;29;20088;-71
2022/09/29 09:31:43;;;;;;;5.80;5.50;;;;;;;;;;4861342;29;20093;-71
2022/09/29 09:34:17;;;;;;;5.80;5.50;;;;;;;;;;4868303;29;20530;-71
2022/09/29 09:37:01;;;;;;;5.70;5.40;;;;;;;;;;4867327;29;20049;-70
2022/09/29 09:39:33;;;;;;;5.93;5.63;;;;;;;;;;4872502;29;20052;-71
2022/09/29 09:42:02;;;;;;;6.03;5.72;;;;;;;;;;4860861;29;21545;-70
2022/09/29 09:44:41;;;;;;;5.90;5.60;;;;;;;;;;4871700;29;20084;-70
2022/09/29 09:47:23;;;;;;;6.18;5.88;;;;;;;;;;4870124;29;20041;-70
2022/09/29 09:49:56;;;;;;;5.75;5.45;;;;;;;;;;4870261;29;20113;-71
2022/09/29 09:52:23;;;;;;;5.82;5.53;;;;;;;;;;4873105;29;20592;-71
2022/09/29 09:54:54;;;;;;;6.00;5.70;;;;;;;;;;4873833;29;20450;-71
2022/09/29 09:57:32;;;;;;;5.97;5.68;;;;;;;;;;4929189;28;20521;-71
2022/09/29 10:00:56;;;;;;;5.80;5.50;;;;;;;;;;4966489;28;20084;-71
2022/09/29 10:03:22;;;;;;;5.90;5.60;;;;;;;;;;4937219;28;20049;-73
2022/09/29 10:05:49;;;;;;;5.90;5.60;;;;;;;;;;4948550;28;20059;-72
2022/09/29 10:08:24;;;;;;;6.10;5.80;;;;;;;;;;4950192;28;20051;-73
2022/09/29 10:10:50;;;;;;;6.30;6.00;;;;;;;;;;4951674;28;20136;-73
2022/09/29 10:13:16;;;;;;;5.85;5.55;;;;;;;;;;4952121;28;20450;-73
2022/09/29 10:16:09;;;;;;;6.20;5.90;;;;;;;;;;4951413;28;20047;-73
2022/09/29 10:18:41;;;;;;;6.20;5.90;;;;;;;;;;4950348;28;20042;-72
2022/09/29 10:21:27;;;;;;;6.03;5.72;;;;;;;;;;4948450;28;20047;-71
2022/09/29 10:23:55;;;;;;;6.00;5.70;;;;;;;;;;4951751;28;20047;-71
2022/09/29 10:26:25;;;;;;;6.22;5.93;;;;;;;;;;4948994;28;20078;-73
2022/09/29 10:28:57;;;;;;;6.30;6.00;;;;;;;;;;4951197;28;20031;-71
2022/09/29 10:31:25;;;;;;;6.07;5.78;;;;;;;;;;4951176;28;20085;-71
2022/09/29 10:33:59;;;;;;;5.97;5.68;;;;;;;;;;4982973;28;20080;-72
2022/09/29 10:36:31;;;;;;;5.97;5.68;;;;;;;;;;5009490;28;20042;-71
2022/09/29 10:38:57;;;;;;;6.00;5.70;;;;;;;;;;5006864;28;20156;-70
2022/09/29 10:41:24;;;;;;;6.55;6.25;;;;;;;;;;5009573;28;20038;-71
2022/09/29 10:43:51;;;;;;;6.18;5.88;;;;;;;;;;5012586;28;20120;-70
2022/09/29 10:46:45;;;;;;;6.22;5.93;;;;;;;;;;5012202;28;20037;-70
2022/09/29 10:49:14;;;;;;;6.22;5.93;;;;;;;;;;5010924;28;20500;-70
2022/09/29 10:51:46;;;;;;;6.53;6.23;;;;;;;;;;5013773;28;20052;-70
2022/09/29 10:54:15;;;;;;;6.30;6.00;;;;;;;;;;5014317;28;20347;-71
2022/09/29 10:56:47;;;;;;;6.20;5.90;;;;;;;;;;5009421;28;20034;-71
2022/09/29 10:59:14;;;;;;;5.97;5.68;;;;;;;;;;5010624;28;20041;-71
2022/09/29 11:01:48;;;;;;;5.80;5.50;;;;;;;;;;5009148;28;20042;-71
2022/09/29 11:04:24;;;;;;;6.00;5.70;;;;;;;;;;5010963;28;20384;-69
2022/09/29 11:06:50;;;;;;;5.85;5.55;;;;;;;;;;5010310;28;20080;-70
2022/09/29 11:09:19;;;;;;;5.57;5.38;;;;;;;;;;5005467;28;20029;-71
2022/09/29 11:11:47;;;;;;;5.72;5.43;;;;;;;;;;5006729;28;20104;-73
2022/09/29 11:14:22;;;;;;;6.05;5.75;;;;;;;;;;5009520;28;20033;-70
2022/09/29 11:16:56;;;;;;;5.90;5.60;;;;;;;;;;5011055;28;20120;-71
2022/09/29 11:19:22;;;;;;;6.22;5.93;;;;;;;;;;5011566;28;20026;-70
2022/09/29 11:22:14;;;;;;;6.13;5.82;;;;;;;;;;5015297;28;20419;-70
2022/09/29 11:25:01;;;;;;;6.47;6.18;;;;;;;;;;5010052;28;20049;-70
2022/09/29 11:27:42;;;;;;;6.50;6.20;;;;;;;;;;5011708;28;20038;-69
2022/09/29 11:30:21;;;;;;;6.15;5.85;;;;;;;;;;5012116;28;20140;-72
2022/09/29 11:33:19;;;;;;;6.32;6.03;;;;;;;;;;5013339;28;20041;-70
2022/09/29 11:36:02;;;;;;;6.70;6.40;;;;;;;;;;5010741;28;20070;-70
2022/09/29 11:38:47;;;;;;;6.35;6.05;;;;;;;;;;5013127;28;20052;-70
2022/09/29 11:41:32;;;;;;;6.80;6.50;;;;;;;;;;5010517;28;20045;-71
2022/09/29 11:44:07;;;;;;;6.95;6.65;;;;;;;;;;5012351;28;20041;-70
2022/09/29 11:46:32;;;;;;;6.70;6.40;;;;;;;;;;5011922;28;20041;-70
2022/09/29 11:49:25;;;;;;;6.53;6.22;;;;;;;;;;5010959;28;20056;-70
2022/09/29 11:52:00;;;;;;;6.47;6.18;;;;;;;;;;5011020;28;20870;-71
2022/09/29 11:54:28;;;;;;;6.18;5.88;;;;;;;;;;5007569;28;20048;-70
2022/09/29 11:57:08;;;;;;;6.35;6.05;;;;;;;;;;5011469;28;20033;-70
2022/09/29 11:59:58;;;;;;;6.53;6.22;;;;;;;;;;5011016;28;20413;-70
2022/09/29 12:02:32;;;;;;;6.28;5.97;;;;;;;;;;5008289;28;20074;-70
2022/09/29 12:05:16;;;;;;;7.32;6.93;;;;;;;;;;5007134;28;20029;-70
2022/09/29 12:08:19;;;;;;;7.15;6.80;;;;;;;;;;5009803;28;20049;-70
2022/09/29 12:11:06;;;;;;;7.05;6.75;;;;;;;;;;5010290;28;20025;-70
2022/09/29 12:13:50;;;;;;;6.78;6.47;;;;;;;;;;5009913;28;20034;-71
2022/09/29 12:16:19;;;;;;;6.85;6.55;;;;;;;;;;5009708;28;20509;-71
2022/09/29 12:19:03;;;;;;;6.78;6.47;;;;;;;;;;5012513;28;20487;-71
2022/09/29 12:21:39;;;;;;;6.55;6.25;;;;;;;;;;4974467;28;20026;-71
2022/09/29 12:24:36;;;;;;;7.07;6.78;;;;;;;;;;5010177;28;20040;-71
2022/09/29 12:27:07;;;;;;;6.70;6.40;;;;;;;;;;5005556;28;20048;-70
2022/09/29 12:29:40;;;;;;;6.60;6.30;;;;;;;;;;5009679;28;20044;-71
2022/09/29 12:32:40;;;;;;;6.30;6.00;;;;;;;;;;5009975;28;20033;-71
2022/09/29 12:35:16;;;;;;;6.30;6.00;;;;;;;;;;4943051;29;20043;-70
2022/09/29 12:37:56;;;;;;;6.57;6.28;;;;;;;;;;4943733;28;20525;-70
2022/09/29 12:40:32;;;;;;;6.80;6.50;;;;;;;;;;4946082;28;20035;-70
2022/09/29 12:43:15;;;;;;;6.68;6.38;;;;;;;;;;4943329;29;20070;-70
2022/09/29 12:45:54;;;;;;;6.70;6.40;;;;;;;;;;4944009;29;20051;-71
2022/09/29 12:48:31;;;;;;;6.80;6.50;;;;;;;;;;4941342;28;20050;-71
2022/09/29 12:51:02;;;;;;;5.70;5.40;;;;;;;;;;4942653;29;20099;-70
2022/09/29 12:53:46;;;;;;;6.75;6.45;;;;;;;;;;4942385;29;20059;-70
2022/09/29 12:56:37;;;;;;;6.20;5.90;;;;;;;;;;4940939;28;20172;-70
2022/09/29 12:59:16;;;;;;;6.63;6.32;;;;;;;;;;4942307;29;20039;-70
2022/09/29 13:01:41;;;;;;;6.38;6.07;;;;;;;;;;4942516;29;20511;-70
2022/09/29 13:04:53;;;;;;;6.30;6.00;;;;;;;;;;4941737;28;20453;-71
2022/09/29 13:07:27;;;;;;;6.63;6.32;;;;;;;;;;4941688;29;20047;-71
2022/09/29 13:10:05;;;;;;;6.60;6.30;;;;;;;;;;4943149;29;20094;-71
2022/09/29 13:13:08;;;;;;;6.15;5.85;;;;;;;;;;5004213;28;20041;-71
2022/09/29 13:16:04;;;;;;;6.78;6.47;;;;;;;;;;5011443;28;20057;-70
2022/09/29 13:18:39;;;;;;;6.82;6.53;;;;;;;;;;5011323;28;20089;-71
2022/09/29 13:21:35;;;;;;;6.28;5.97;;;;;;;;;;5008489;28;20539;-71
2022/09/29 13:24:16;;;;;;;6.55;6.25;;;;;;;;;;5010873;28;20068;-71
2022/09/29 13:26:49;;;;;;;6.43;6.13;;;;;;;;;;5011286;28;20058;-72
2022/09/29 13:29:19;;;;;;;6.35;6.05;;;;;;;;;;5013958;28;20074;-70
2022/09/29 13:31:52;;;;;;;6.18;5.88;;;;;;;;;;5014729;28;20037;-71
2022/09/29 13:34:39;;;;;;;6.15;5.85;;;;;;;;;;5014178;28;20046;-70
2022/09/29 13:37:11;;;;;;;6.32;6.03;;;;;;;;;;5012071;28;20041;-71
2022/09/29 13:39:38;;;;;;;5.82;5.53;;;;;;;;;;5013599;28;20045;-70
2022/09/29 13:42:43;;;;;;;5.78;5.47;;;;;;;;;;5011283;28;20100;-71
2022/09/29 13:45:24;;;;;;;6.07;5.78;;;;;;;;;;5013666;28;20828;-71
2022/09/29 13:47:57;;;;;;;5.97;5.68;;;;;;;;;;5013475;28;20038;-70
2022/09/29 13:50:51;;;;;;;6.10;5.80;;;;;;;;;;5009617;28;20124;-70
2022/09/29 13:53:41;;;;;;;6.00;5.70;;;;;;;;;;5011526;28;20056;-70
2022/09/29 13:56:16;;;;;;;5.50;5.30;;;;;;;;;;5013703;28;20051;-70
2022/09/29 13:58:42;;;;;;;6.25;5.95;;;;;;;;;;5009036;28;20096;-70
2022/09/29 14:01:11;;;;;;;6.07;5.78;;;;;;;;;;5015024;28;20037;-70
2022/09/29 14:03:42;;;;;;;6.13;5.82;;;;;;;;;;5014710;28;20498;-70
2022/09/29 14:06:15;;;;;;;6.00;5.70;;;;;;;;;;5014288;28;20037;-71
2022/09/29 14:08:57;;;;;;;6.30;6.00;;;;;;;;;;5014565;28;20033;-71
2022/09/29 14:11:31;;;;;;;6.30;6.00;;;;;;;;;;5016905;28;20038;-71
2022/09/29 14:14:21;;;;;;;6.10;5.80;;;;;;;;;;5018129;28;20375;-71
2022/09/29 14:16:52;;;;;;;6.20;5.90;;;;;;;;;;5018823;28;20033;-71
2022/09/29 14:19:39;;;;;;;5.90;5.60;;;;;;;;;;5014887;28;20034;-70
2022/09/29 14:22:30;;;;;;;6.20;5.90;;;;;;;;;;5014813;28;20037;-71
2022/09/29 14:25:11;;;;;;;6.40;6.10;;;;;;;;;;5017390;28;20046;-71
2022/09/29 14:27:57;;;;;;;6.20;5.90;;;;;;;;;;5014002;28;20199;-70
2022/09/29 14:30:33;;;;;;;6.15;5.85;;;;;;;;;;5011220;28;20101;-71
2022/09/29 14:33:13;;;;;;;6.25;5.95;;;;;;;;;;5016724;28;20055;-71
2022/09/29 14:36:02;;;;;;;6.05;5.75;;;;;;;;;;5011688;28;20530;-71
2022/09/29 14:38:29;;;;;;;6.10;5.80;;;;;;;;;;5002446;28;20038;-71
2022/09/29 14:41:22;;;;;;;6.25;5.95;;;;;;;;;;5014678;28;20038;-71
2022/09/29 14:44:06;;;;;;;6.57;6.28;;;;;;;;;;5004753;28;20042;-70
2022/09/29 14:53:12;;;;;;;6.35;6.05;;;;;;;;;;4964175;28;20629;-70
2022/09/29 14:55:46;;;;;;;6.38;6.07;;;;;;;;;;4969380;28;20046;-70
2022/09/29 14:58:20;;;;;;;6.78;6.47;;;;;;;;;;4968454;28;20514;-70
2022/09/29 15:00:45;;;;;;;6.80;6.50;;;;;;;;;;4964732;28;20046;-70
2022/09/29 15:03:25;;;;;;;6.40;6.10;;;;;;;;;;4967206;28;20073;-70
2022/09/29 15:06:25;;;;;;;6.43;6.13;;;;;;;;;;4968415;28;20047;-71
2022/09/29 15:09:03;;;;;;;6.50;6.20;;;;;;;;;;4888756;29;20139;-70
2022/09/29 15:11:45;;;;;;;6.22;5.93;;;;;;;;;;4890369;29;20656;-70
2022/09/29 15:14:33;;;;;;;6.22;5.93;;;;;;;;;;4887862;29;20036;-71
2022/09/29 15:17:13;;;;;;;6.50;6.20;;;;;;;;;;4884235;29;20557;-70
2022/09/29 15:19:52;;;;;;;6.40;6.10;;;;;;;;;;4889080;29;20230;-70
2022/09/29 15:22:31;;;;;;;6.22;5.93;;;;;;;;;;4888562;29;20104;-69
2022/09/29 15:25:39;;;;;;;6.25;5.95;;;;;;;;;;4925378;29;20051;-71
2022/09/29 15:28:24;;;;;;;6.15;5.85;;;;;;;;;;4928165;29;20047;-70